sensor_id;sensor_type;location;lat;lon;timestamp;P1;durP1;ratioP1;P2;durP2;ratioP2
23494;SDS011;26107;50.832;2.950;2023-04-08T00:05:05;9.63;;;3.03;;
23494;SDS011;26107;50.832;2.950;2023-04-08T00:20:06;4.22;;;3.15;;
23494;SDS011;26107;50.832;2.950;2023-04-08T00:35:07;4.68;;;2.67;;
23494;SDS011;26107;50.832;2.950;2023-04-08T00:50:08;9.80;;;3.65;;
23494;SDS011;26107;50.832;2.950;2023-04-08T01:05:14;10.27;;;3.55;;
23494;SDS011;26107;50.832;2.950;2023-04-08T01:20:22;5.83;;;4.03;;
23494;SDS011;26107;50.832;2.950;2023-04-08T01:35:24;7.72;;;3.28;;
23494;SDS011;26107;50.832;2.950;2023-04-08T01:50:26;9.73;;;3.70;;
23494;SDS011;26107;50.832;2.950;2023-04-08T02:05:27;5.90;;;3.55;;
23494;SDS011;26107;50.832;2.950;2023-04-08T02:20:33;5.82;;;3.70;;
23494;SDS011;26107;50.832;2.950;2023-04-08T02:50:40;8.13;;;3.72;;
23494;SDS011;26107;50.832;2.950;2023-04-08T03:05:40;6.88;;;3.88;;
23494;SDS011;26107;50.832;2.950;2023-04-08T03:20:41;6.05;;;3.72;;
23494;SDS011;26107;50.832;2.950;2023-04-08T03:35:41;6.15;;;4.25;;
23494;SDS011;26107;50.832;2.950;2023-04-08T03:50:42;7.13;;;4.13;;
23494;SDS011;26107;50.832;2.950;2023-04-08T04:05:43;4.72;;;3.75;;
23494;SDS011;26107;50.832;2.950;2023-04-08T04:20:43;11.23;;;3.97;;
23494;SDS011;26107;50.832;2.950;2023-04-08T04:35:44;9.32;;;4.30;;
23494;SDS011;26107;50.832;2.950;2023-04-08T04:50:52;8.23;;;4.25;;
23494;SDS011;26107;50.832;2.950;2023-04-08T05:05:57;10.45;;;7.20;;
23494;SDS011;26107;50.832;2.950;2023-04-08T05:20:57;15.40;;;10.60;;
23494;SDS011;26107;50.832;2.950;2023-04-08T05:35:58;10.68;;;4.20;;
23494;SDS011;26107;50.832;2.950;2023-04-08T05:50:59;7.45;;;4.47;;
23494;SDS011;26107;50.832;2.950;2023-04-08T06:05:59;10.55;;;4.95;;
23494;SDS011;26107;50.832;2.950;2023-04-08T06:21:00;6.78;;;4.45;;
23494;SDS011;26107;50.832;2.950;2023-04-08T06:36:01;6.78;;;3.88;;
23494;SDS011;26107;50.832;2.950;2023-04-08T06:51:02;10.20;;;4.70;;
23494;SDS011;26107;50.832;2.950;2023-04-08T07:06:03;6.70;;;4.78;;
23494;SDS011;26107;50.832;2.950;2023-04-08T07:21:04;8.80;;;5.05;;
23494;SDS011;26107;50.832;2.950;2023-04-08T07:36:05;8.20;;;5.07;;
23494;SDS011;26107;50.832;2.950;2023-04-08T07:51:06;8.00;;;5.10;;
23494;SDS011;26107;50.832;2.950;2023-04-08T08:06:07;10.30;;;5.07;;
23494;SDS011;26107;50.832;2.950;2023-04-08T08:21:09;4.30;;;3.65;;
23494;SDS011;26107;50.832;2.950;2023-04-08T08:36:10;6.72;;;3.53;;
23494;SDS011;26107;50.832;2.950;2023-04-08T08:51:11;3.35;;;2.40;;
23494;SDS011;26107;50.832;2.950;2023-04-08T09:06:16;5.40;;;3.67;;
23494;SDS011;26107;50.832;2.950;2023-04-08T09:21:18;6.80;;;3.10;;
23494;SDS011;26107;50.832;2.950;2023-04-08T09:36:22;6.82;;;3.38;;
23494;SDS011;26107;50.832;2.950;2023-04-08T09:51:25;4.90;;;3.35;;
23494;SDS011;26107;50.832;2.950;2023-04-08T10:06:32;4.57;;;4.00;;
23494;SDS011;26107;50.832;2.950;2023-04-08T10:36:47;8.02;;;4.55;;
23494;SDS011;26107;50.832;2.950;2023-04-08T10:51:49;5.60;;;4.28;;
23494;SDS011;26107;50.832;2.950;2023-04-08T11:06:49;7.00;;;4.63;;
23494;SDS011;26107;50.832;2.950;2023-04-08T11:21:51;5.50;;;4.10;;
23494;SDS011;26107;50.832;2.950;2023-04-08T11:36:56;6.78;;;4.78;;
23494;SDS011;26107;50.832;2.950;2023-04-08T11:51:58;6.85;;;4.63;;
23494;SDS011;26107;50.832;2.950;2023-04-08T12:06:59;6.95;;;4.85;;
23494;SDS011;26107;50.832;2.950;2023-04-08T12:21:59;6.28;;;4.82;;
23494;SDS011;26107;50.832;2.950;2023-04-08T12:37:00;15.82;;;5.53;;
23494;SDS011;26107;50.832;2.950;2023-04-08T12:52:01;10.05;;;4.97;;
23494;SDS011;26107;50.832;2.950;2023-04-08T13:07:02;9.02;;;5.50;;
23494;SDS011;26107;50.832;2.950;2023-04-08T13:22:03;9.88;;;5.65;;
23494;SDS011;26107;50.832;2.950;2023-04-08T13:37:04;12.52;;;7.47;;
23494;SDS011;26107;50.832;2.950;2023-04-08T13:52:05;14.52;;;7.35;;
23494;SDS011;26107;50.832;2.950;2023-04-08T14:07:06;9.75;;;6.82;;
23494;SDS011;26107;50.832;2.950;2023-04-08T14:22:06;14.13;;;7.70;;
23494;SDS011;26107;50.832;2.950;2023-04-08T14:37:07;12.82;;;8.80;;
23494;SDS011;26107;50.832;2.950;2023-04-08T14:52:08;15.23;;;9.68;;
23494;SDS011;26107;50.832;2.950;2023-04-08T15:07:08;13.25;;;9.27;;
23494;SDS011;26107;50.832;2.950;2023-04-08T15:22:09;21.33;;;11.15;;
23494;SDS011;26107;50.832;2.950;2023-04-08T15:37:10;20.50;;;11.45;;
23494;SDS011;26107;50.832;2.950;2023-04-08T15:52:11;15.68;;;10.15;;
23494;SDS011;26107;50.832;2.950;2023-04-08T16:07:11;18.25;;;10.48;;
23494;SDS011;26107;50.832;2.950;2023-04-08T16:22:12;18.15;;;11.20;;
23494;SDS011;26107;50.832;2.950;2023-04-08T16:37:13;23.88;;;12.07;;
23494;SDS011;26107;50.832;2.950;2023-04-08T16:52:13;18.80;;;13.05;;
23494;SDS011;26107;50.832;2.950;2023-04-08T17:07:14;24.38;;;13.60;;
23494;SDS011;26107;50.832;2.950;2023-04-08T17:22:15;23.60;;;13.77;;
23494;SDS011;26107;50.832;2.950;2023-04-08T17:37:16;24.23;;;14.95;;
23494;SDS011;26107;50.832;2.950;2023-04-08T17:52:17;26.38;;;15.50;;
23494;SDS011;26107;50.832;2.950;2023-04-08T18:07:17;28.35;;;17.42;;
23494;SDS011;26107;50.832;2.950;2023-04-08T18:22:18;30.13;;;16.42;;
23494;SDS011;26107;50.832;2.950;2023-04-08T18:37:21;34.65;;;19.90;;
23494;SDS011;26107;50.832;2.950;2023-04-08T18:52:23;32.08;;;19.10;;
23494;SDS011;26107;50.832;2.950;2023-04-08T19:07:24;31.08;;;18.75;;
23494;SDS011;26107;50.832;2.950;2023-04-08T19:22:26;34.33;;;21.17;;
23494;SDS011;26107;50.832;2.950;2023-04-08T19:37:26;35.85;;;22.17;;
23494;SDS011;26107;50.832;2.950;2023-04-08T19:52:27;35.25;;;22.23;;
23494;SDS011;26107;50.832;2.950;2023-04-08T20:07:28;30.77;;;19.73;;
23494;SDS011;26107;50.832;2.950;2023-04-08T20:22:29;30.80;;;19.90;;
23494;SDS011;26107;50.832;2.950;2023-04-08T20:37:30;33.30;;;20.65;;
23494;SDS011;26107;50.832;2.950;2023-04-08T20:52:32;34.40;;;19.40;;
23494;SDS011;26107;50.832;2.950;2023-04-08T21:07:33;37.15;;;19.42;;
23494;SDS011;26107;50.832;2.950;2023-04-08T21:22:34;32.95;;;16.88;;
23494;SDS011;26107;50.832;2.950;2023-04-08T21:37:36;34.55;;;16.88;;
23494;SDS011;26107;50.832;2.950;2023-04-08T21:52:36;33.60;;;17.45;;
23494;SDS011;26107;50.832;2.950;2023-04-08T22:07:37;80.30;;;20.98;;
23494;SDS011;26107;50.832;2.950;2023-04-08T22:22:37;157.05;;;25.63;;
23494;SDS011;26107;50.832;2.950;2023-04-08T22:37:38;103.25;;;19.67;;
23494;SDS011;26107;50.832;2.950;2023-04-08T22:52:40;115.95;;;19.77;;
23494;SDS011;26107;50.832;2.950;2023-04-08T23:07:41;177.60;;;23.63;;
23494;SDS011;26107;50.832;2.950;2023-04-08T23:22:41;127.45;;;21.10;;
23494;SDS011;26107;50.832;2.950;2023-04-08T23:37:42;167.30;;;21.52;;
23494;SDS011;26107;50.832;2.950;2023-04-08T23:52:42;97.78;;;21.52;;
